sensor_id;sensor_type;location;lat;lon;timestamp;P1;durP1;ratioP1;P2;durP2;ratioP2
10315;SDS011;5203;48.976;8.306;2023-06-05T00:01:37;5.88;;;5.35;;
10315;SDS011;5203;48.976;8.306;2023-06-05T00:04:03;5.80;;;5.40;;
10315;SDS011;5203;48.976;8.306;2023-06-05T00:06:29;5.13;;;4.82;;
10315;SDS011;5203;48.976;8.306;2023-06-05T00:08:55;6.53;;;5.53;;
10315;SDS011;5203;48.976;8.306;2023-06-05T00:11:21;6.22;;;5.82;;
10315;SDS011;5203;48.976;8.306;2023-06-05T00:13:47;5.80;;;5.40;;
10315;SDS011;5203;48.976;8.306;2023-06-05T00:16:12;6.40;;;5.90;;
10315;SDS011;5203;48.976;8.306;2023-06-05T00:18:38;5.60;;;5.10;;
10315;SDS011;5203;48.976;8.306;2023-06-05T00:21:04;6.43;;;5.93;;
10315;SDS011;5203;48.976;8.306;2023-06-05T00:23:29;5.72;;;5.32;;
10315;SDS011;5203;48.976;8.306;2023-06-05T00:25:55;6.22;;;5.82;;
10315;SDS011;5203;48.976;8.306;2023-06-05T00:28:22;5.72;;;5.30;;
10315;SDS011;5203;48.976;8.306;2023-06-05T00:30:49;6.28;;;5.88;;
10315;SDS011;5203;48.976;8.306;2023-06-05T00:33:14;6.32;;;5.78;;
10315;SDS011;5203;48.976;8.306;2023-06-05T00:35:40;6.00;;;5.50;;
10315;SDS011;5203;48.976;8.306;2023-06-05T00:38:06;6.55;;;5.95;;
10315;SDS011;5203;48.976;8.306;2023-06-05T00:40:32;6.40;;;5.90;;
10315;SDS011;5203;48.976;8.306;2023-06-05T00:42:57;6.20;;;5.70;;
10315;SDS011;5203;48.976;8.306;2023-06-05T00:45:23;6.05;;;5.55;;
10315;SDS011;5203;48.976;8.306;2023-06-05T00:47:49;6.18;;;5.68;;
10315;SDS011;5203;48.976;8.306;2023-06-05T00:50:15;6.22;;;5.72;;
10315;SDS011;5203;48.976;8.306;2023-06-05T00:52:42;6.22;;;5.72;;
10315;SDS011;5203;48.976;8.306;2023-06-05T00:55:09;6.22;;;5.72;;
10315;SDS011;5203;48.976;8.306;2023-06-05T00:57:36;7.47;;;5.90;;
10315;SDS011;5203;48.976;8.306;2023-06-05T01:00:04;5.75;;;5.35;;
10315;SDS011;5203;48.976;8.306;2023-06-05T01:02:32;5.88;;;5.50;;
10315;SDS011;5203;48.976;8.306;2023-06-05T01:04:59;5.70;;;5.35;;
10315;SDS011;5203;48.976;8.306;2023-06-05T01:07:25;5.50;;;5.00;;
10315;SDS011;5203;48.976;8.306;2023-06-05T01:09:53;5.57;;;5.03;;
10315;SDS011;5203;48.976;8.306;2023-06-05T01:12:25;6.00;;;5.40;;
10315;SDS011;5203;48.976;8.306;2023-06-05T01:14:56;5.40;;;5.00;;
10315;SDS011;5203;48.976;8.306;2023-06-05T01:17:24;5.30;;;4.90;;
10315;SDS011;5203;48.976;8.306;2023-06-05T01:19:54;5.53;;;5.13;;
10315;SDS011;5203;48.976;8.306;2023-06-05T01:22:20;5.65;;;5.18;;
10315;SDS011;5203;48.976;8.306;2023-06-05T01:24:46;6.50;;;5.32;;
10315;SDS011;5203;48.976;8.306;2023-06-05T01:27:17;5.32;;;4.93;;
10315;SDS011;5203;48.976;8.306;2023-06-05T01:30:05;5.07;;;4.57;;
10315;SDS011;5203;48.976;8.306;2023-06-05T01:33:00;5.65;;;5.20;;
10315;SDS011;5203;48.976;8.306;2023-06-05T01:35:31;5.50;;;5.10;;
10315;SDS011;5203;48.976;8.306;2023-06-05T01:37:59;5.63;;;5.13;;
10315;SDS011;5203;48.976;8.306;2023-06-05T01:40:27;5.10;;;4.70;;
10315;SDS011;5203;48.976;8.306;2023-06-05T01:42:55;5.40;;;4.97;;
10315;SDS011;5203;48.976;8.306;2023-06-05T01:45:22;5.88;;;5.32;;
10315;SDS011;5203;48.976;8.306;2023-06-05T01:47:49;4.78;;;4.47;;
10315;SDS011;5203;48.976;8.306;2023-06-05T01:50:15;5.45;;;4.88;;
10315;SDS011;5203;48.976;8.306;2023-06-05T01:52:42;5.70;;;5.10;;
10315;SDS011;5203;48.976;8.306;2023-06-05T01:55:15;5.65;;;5.20;;
10315;SDS011;5203;48.976;8.306;2023-06-05T01:57:44;5.28;;;4.88;;
10315;SDS011;5203;48.976;8.306;2023-06-05T02:00:10;5.25;;;4.88;;
10315;SDS011;5203;48.976;8.306;2023-06-05T02:02:44;5.50;;;5.10;;
10315;SDS011;5203;48.976;8.306;2023-06-05T02:05:12;5.82;;;5.30;;
10315;SDS011;5203;48.976;8.306;2023-06-05T02:07:39;15.10;;;6.47;;
10315;SDS011;5203;48.976;8.306;2023-06-05T02:10:18;5.32;;;4.93;;
10315;SDS011;5203;48.976;8.306;2023-06-05T02:12:44;5.60;;;5.20;;
10315;SDS011;5203;48.976;8.306;2023-06-05T02:15:11;5.55;;;5.22;;
10315;SDS011;5203;48.976;8.306;2023-06-05T02:17:41;5.10;;;4.72;;
10315;SDS011;5203;48.976;8.306;2023-06-05T02:20:10;5.43;;;5.05;;
10315;SDS011;5203;48.976;8.306;2023-06-05T02:22:37;5.10;;;4.80;;
10315;SDS011;5203;48.976;8.306;2023-06-05T02:25:03;5.55;;;5.15;;
10315;SDS011;5203;48.976;8.306;2023-06-05T02:27:30;6.70;;;5.45;;
10315;SDS011;5203;48.976;8.306;2023-06-05T02:29:56;5.70;;;5.30;;
10315;SDS011;5203;48.976;8.306;2023-06-05T02:32:21;7.78;;;5.32;;
10315;SDS011;5203;48.976;8.306;2023-06-05T02:34:51;4.85;;;4.55;;
10315;SDS011;5203;48.976;8.306;2023-06-05T02:37:17;5.28;;;4.82;;
10315;SDS011;5203;48.976;8.306;2023-06-05T02:39:43;5.05;;;4.75;;
10315;SDS011;5203;48.976;8.306;2023-06-05T02:42:10;5.18;;;4.78;;
10315;SDS011;5203;48.976;8.306;2023-06-05T02:44:37;5.30;;;4.80;;
10315;SDS011;5203;48.976;8.306;2023-06-05T02:47:03;5.00;;;4.70;;
10315;SDS011;5203;48.976;8.306;2023-06-05T02:49:29;5.03;;;4.63;;
10315;SDS011;5203;48.976;8.306;2023-06-05T02:51:55;5.00;;;4.60;;
10315;SDS011;5203;48.976;8.306;2023-06-05T02:54:20;5.30;;;4.90;;
10315;SDS011;5203;48.976;8.306;2023-06-05T02:56:46;4.88;;;4.47;;
10315;SDS011;5203;48.976;8.306;2023-06-05T02:59:12;5.28;;;4.88;;
10315;SDS011;5203;48.976;8.306;2023-06-05T03:01:39;5.10;;;4.70;;
10315;SDS011;5203;48.976;8.306;2023-06-05T03:04:08;8.15;;;4.82;;
10315;SDS011;5203;48.976;8.306;2023-06-05T03:06:34;5.32;;;4.88;;
10315;SDS011;5203;48.976;8.306;2023-06-05T03:09:00;4.88;;;4.57;;
10315;SDS011;5203;48.976;8.306;2023-06-05T03:11:26;5.03;;;4.72;;
10315;SDS011;5203;48.976;8.306;2023-06-05T03:13:52;5.68;;;5.28;;
10315;SDS011;5203;48.976;8.306;2023-06-05T03:16:18;4.93;;;4.57;;
10315;SDS011;5203;48.976;8.306;2023-06-05T03:18:44;5.10;;;4.70;;
10315;SDS011;5203;48.976;8.306;2023-06-05T03:21:11;4.93;;;4.53;;
10315;SDS011;5203;48.976;8.306;2023-06-05T03:23:36;5.63;;;5.13;;
10315;SDS011;5203;48.976;8.306;2023-06-05T03:26:02;5.40;;;5.03;;
10315;SDS011;5203;48.976;8.306;2023-06-05T03:28:28;8.40;;;7.78;;
10315;SDS011;5203;48.976;8.306;2023-06-05T03:30:55;5.32;;;4.93;;
10315;SDS011;5203;48.976;8.306;2023-06-05T03:33:21;5.45;;;5.03;;
10315;SDS011;5203;48.976;8.306;2023-06-05T03:35:46;5.85;;;5.35;;
10315;SDS011;5203;48.976;8.306;2023-06-05T03:38:12;5.32;;;4.93;;
10315;SDS011;5203;48.976;8.306;2023-06-05T03:40:38;4.70;;;4.30;;
10315;SDS011;5203;48.976;8.306;2023-06-05T03:43:04;5.70;;;5.00;;
10315;SDS011;5203;48.976;8.306;2023-06-05T03:45:30;5.00;;;4.47;;
10315;SDS011;5203;48.976;8.306;2023-06-05T03:47:56;4.70;;;4.18;;
10315;SDS011;5203;48.976;8.306;2023-06-05T03:50:25;4.78;;;4.25;;
10315;SDS011;5203;48.976;8.306;2023-06-05T03:52:53;4.82;;;4.45;;
10315;SDS011;5203;48.976;8.306;2023-06-05T03:55:31;4.53;;;4.13;;
10315;SDS011;5203;48.976;8.306;2023-06-05T03:58:09;7.80;;;5.28;;
10315;SDS011;5203;48.976;8.306;2023-06-05T04:00:39;5.75;;;4.28;;
10315;SDS011;5203;48.976;8.306;2023-06-05T04:03:09;5.20;;;4.72;;
10315;SDS011;5203;48.976;8.306;2023-06-05T04:05:36;4.22;;;3.92;;
10315;SDS011;5203;48.976;8.306;2023-06-05T04:08:07;4.82;;;4.30;;
10315;SDS011;5203;48.976;8.306;2023-06-05T04:10:34;4.63;;;4.33;;
10315;SDS011;5203;48.976;8.306;2023-06-05T04:13:00;7.28;;;4.53;;
10315;SDS011;5203;48.976;8.306;2023-06-05T04:15:26;4.35;;;4.00;;
10315;SDS011;5203;48.976;8.306;2023-06-05T04:17:52;4.37;;;4.00;;
10315;SDS011;5203;48.976;8.306;2023-06-05T04:20:18;4.70;;;4.30;;
10315;SDS011;5203;48.976;8.306;2023-06-05T04:22:44;4.77;;;4.37;;
10315;SDS011;5203;48.976;8.306;2023-06-05T04:25:10;7.93;;;4.03;;
10315;SDS011;5203;48.976;8.306;2023-06-05T04:27:40;9.53;;;4.60;;
10315;SDS011;5203;48.976;8.306;2023-06-05T04:30:07;5.80;;;4.37;;
10315;SDS011;5203;48.976;8.306;2023-06-05T04:32:34;5.17;;;4.60;;
10315;SDS011;5203;48.976;8.306;2023-06-05T04:35:06;9.53;;;4.40;;
10315;SDS011;5203;48.976;8.306;2023-06-05T04:37:33;22.67;;;6.40;;
10315;SDS011;5203;48.976;8.306;2023-06-05T04:40:00;4.77;;;3.73;;
10315;SDS011;5203;48.976;8.306;2023-06-05T04:42:30;9.97;;;5.00;;
10315;SDS011;5203;48.976;8.306;2023-06-05T04:45:00;4.83;;;4.30;;
10315;SDS011;5203;48.976;8.306;2023-06-05T04:47:36;3.83;;;3.53;;
10315;SDS011;5203;48.976;8.306;2023-06-05T04:50:03;4.83;;;3.83;;
10315;SDS011;5203;48.976;8.306;2023-06-05T04:52:30;3.97;;;3.67;;
10315;SDS011;5203;48.976;8.306;2023-06-05T04:55:00;3.87;;;3.57;;
10315;SDS011;5203;48.976;8.306;2023-06-05T04:57:29;4.00;;;3.70;;
10315;SDS011;5203;48.976;8.306;2023-06-05T04:59:55;5.47;;;4.07;;
10315;SDS011;5203;48.976;8.306;2023-06-05T05:02:24;4.87;;;3.97;;
10315;SDS011;5203;48.976;8.306;2023-06-05T05:04:49;5.70;;;3.93;;
10315;SDS011;5203;48.976;8.306;2023-06-05T05:07:15;4.60;;;4.07;;
10315;SDS011;5203;48.976;8.306;2023-06-05T05:09:44;4.60;;;4.20;;
10315;SDS011;5203;48.976;8.306;2023-06-05T05:12:11;7.37;;;3.93;;
10315;SDS011;5203;48.976;8.306;2023-06-05T05:14:36;5.33;;;4.20;;
10315;SDS011;5203;48.976;8.306;2023-06-05T05:17:03;7.33;;;3.90;;
10315;SDS011;5203;48.976;8.306;2023-06-05T05:19:29;4.60;;;4.20;;
10315;SDS011;5203;48.976;8.306;2023-06-05T05:21:55;4.73;;;4.10;;
10315;SDS011;5203;48.976;8.306;2023-06-05T05:24:20;4.97;;;4.57;;
10315;SDS011;5203;48.976;8.306;2023-06-05T05:26:47;6.13;;;4.67;;
10315;SDS011;5203;48.976;8.306;2023-06-05T05:29:12;4.50;;;4.10;;
10315;SDS011;5203;48.976;8.306;2023-06-05T05:31:38;4.60;;;4.20;;
10315;SDS011;5203;48.976;8.306;2023-06-05T05:34:04;4.90;;;4.50;;
10315;SDS011;5203;48.976;8.306;2023-06-05T05:36:30;5.27;;;4.17;;
10315;SDS011;5203;48.976;8.306;2023-06-05T05:38:58;5.50;;;4.50;;
10315;SDS011;5203;48.976;8.306;2023-06-05T05:41:24;4.80;;;4.40;;
10315;SDS011;5203;48.976;8.306;2023-06-05T05:43:49;4.87;;;4.40;;
10315;SDS011;5203;48.976;8.306;2023-06-05T05:46:15;6.40;;;4.10;;
10315;SDS011;5203;48.976;8.306;2023-06-05T05:48:41;5.60;;;4.20;;
10315;SDS011;5203;48.976;8.306;2023-06-05T05:51:06;4.73;;;4.30;;
10315;SDS011;5203;48.976;8.306;2023-06-05T05:53:32;5.17;;;4.70;;
10315;SDS011;5203;48.976;8.306;2023-06-05T05:55:59;8.77;;;8.10;;
10315;SDS011;5203;48.976;8.306;2023-06-05T05:58:25;8.40;;;4.73;;
10315;SDS011;5203;48.976;8.306;2023-06-05T06:00:51;5.03;;;4.40;;
10315;SDS011;5203;48.976;8.306;2023-06-05T06:03:17;5.87;;;4.10;;
10315;SDS011;5203;48.976;8.306;2023-06-05T06:05:43;6.53;;;4.57;;
10315;SDS011;5203;48.976;8.306;2023-06-05T06:08:09;9.20;;;4.83;;
10315;SDS011;5203;48.976;8.306;2023-06-05T06:10:36;5.67;;;5.10;;
10315;SDS011;5203;48.976;8.306;2023-06-05T06:13:01;14.93;;;5.80;;
10315;SDS011;5203;48.976;8.306;2023-06-05T06:15:27;6.27;;;4.40;;
10315;SDS011;5203;48.976;8.306;2023-06-05T06:17:53;7.50;;;4.83;;
10315;SDS011;5203;48.976;8.306;2023-06-05T06:20:18;5.32;;;4.28;;
10315;SDS011;5203;48.976;8.306;2023-06-05T06:22:44;5.70;;;4.10;;
10315;SDS011;5203;48.976;8.306;2023-06-05T06:25:10;5.00;;;4.60;;
10315;SDS011;5203;48.976;8.306;2023-06-05T06:27:37;4.70;;;4.30;;
10315;SDS011;5203;48.976;8.306;2023-06-05T06:30:03;6.88;;;4.72;;
10315;SDS011;5203;48.976;8.306;2023-06-05T06:32:32;4.63;;;4.13;;
10315;SDS011;5203;48.976;8.306;2023-06-05T06:34:57;13.23;;;5.20;;
10315;SDS011;5203;48.976;8.306;2023-06-05T06:37:24;9.18;;;4.80;;
10315;SDS011;5203;48.976;8.306;2023-06-05T06:39:50;8.07;;;4.47;;
10315;SDS011;5203;48.976;8.306;2023-06-05T06:42:15;4.73;;;4.20;;
10315;SDS011;5203;48.976;8.306;2023-06-05T06:44:41;6.25;;;4.60;;
10315;SDS011;5203;48.976;8.306;2023-06-05T06:47:07;4.68;;;4.28;;
10315;SDS011;5203;48.976;8.306;2023-06-05T06:49:36;4.88;;;4.50;;
10315;SDS011;5203;48.976;8.306;2023-06-05T06:52:02;5.03;;;4.53;;
10315;SDS011;5203;48.976;8.306;2023-06-05T06:54:27;5.25;;;4.82;;
10315;SDS011;5203;48.976;8.306;2023-06-05T06:56:56;5.10;;;4.70;;
10315;SDS011;5203;48.976;8.306;2023-06-05T06:59:22;4.93;;;4.53;;
10315;SDS011;5203;48.976;8.306;2023-06-05T07:02:07;5.22;;;4.45;;
10315;SDS011;5203;48.976;8.306;2023-06-05T07:04:34;4.80;;;4.50;;
10315;SDS011;5203;48.976;8.306;2023-06-05T07:07:00;7.63;;;5.07;;
10315;SDS011;5203;48.976;8.306;2023-06-05T07:09:26;8.27;;;5.05;;
10315;SDS011;5203;48.976;8.306;2023-06-05T07:11:53;12.13;;;4.90;;
10315;SDS011;5203;48.976;8.306;2023-06-05T07:14:19;5.97;;;5.28;;
10315;SDS011;5203;48.976;8.306;2023-06-05T07:16:45;5.20;;;4.68;;
10315;SDS011;5203;48.976;8.306;2023-06-05T07:19:11;5.43;;;4.80;;
10315;SDS011;5203;48.976;8.306;2023-06-05T07:21:38;4.60;;;4.20;;
10315;SDS011;5203;48.976;8.306;2023-06-05T07:24:05;8.98;;;5.53;;
10315;SDS011;5203;48.976;8.306;2023-06-05T07:26:30;8.80;;;6.05;;
10315;SDS011;5203;48.976;8.306;2023-06-05T07:28:57;8.50;;;5.95;;
10315;SDS011;5203;48.976;8.306;2023-06-05T07:31:22;8.70;;;5.50;;
10315;SDS011;5203;48.976;8.306;2023-06-05T07:33:48;22.40;;;7.80;;
10315;SDS011;5203;48.976;8.306;2023-06-05T07:36:13;6.07;;;5.47;;
10315;SDS011;5203;48.976;8.306;2023-06-05T07:38:39;8.55;;;5.25;;
10315;SDS011;5203;48.976;8.306;2023-06-05T07:41:06;8.65;;;5.50;;
10315;SDS011;5203;48.976;8.306;2023-06-05T07:43:33;5.47;;;4.95;;
10315;SDS011;5203;48.976;8.306;2023-06-05T07:45:59;28.23;;;8.75;;
10315;SDS011;5203;48.976;8.306;2023-06-05T07:48:25;33.78;;;10.05;;
10315;SDS011;5203;48.976;8.306;2023-06-05T07:50:51;15.77;;;5.97;;
10315;SDS011;5203;48.976;8.306;2023-06-05T07:53:16;11.52;;;6.20;;
10315;SDS011;5203;48.976;8.306;2023-06-05T07:55:42;16.73;;;7.88;;
10315;SDS011;5203;48.976;8.306;2023-06-05T07:58:08;25.63;;;7.90;;
10315;SDS011;5203;48.976;8.306;2023-06-05T08:00:36;47.00;;;13.27;;
10315;SDS011;5203;48.976;8.306;2023-06-05T08:03:02;67.82;;;16.02;;
10315;SDS011;5203;48.976;8.306;2023-06-05T08:05:28;146.85;;;30.77;;
10315;SDS011;5203;48.976;8.306;2023-06-05T08:07:54;23.95;;;7.75;;
10315;SDS011;5203;48.976;8.306;2023-06-05T08:10:19;110.90;;;22.95;;
10315;SDS011;5203;48.976;8.306;2023-06-05T08:12:45;81.75;;;20.52;;
10315;SDS011;5203;48.976;8.306;2023-06-05T08:15:10;21.63;;;9.32;;
10315;SDS011;5203;48.976;8.306;2023-06-05T08:17:36;75.45;;;16.38;;
10315;SDS011;5203;48.976;8.306;2023-06-05T08:20:02;25.83;;;10.32;;
10315;SDS011;5203;48.976;8.306;2023-06-05T08:22:30;8.55;;;7.82;;
10315;SDS011;5203;48.976;8.306;2023-06-05T08:24:55;140.98;;;31.02;;
10315;SDS011;5203;48.976;8.306;2023-06-05T08:27:24;51.67;;;15.73;;
10315;SDS011;5203;48.976;8.306;2023-06-05T08:29:49;15.95;;;10.68;;
10315;SDS011;5203;48.976;8.306;2023-06-05T08:32:16;11.80;;;9.57;;
10315;SDS011;5203;48.976;8.306;2023-06-05T08:34:44;8.57;;;8.10;;
10315;SDS011;5203;48.976;8.306;2023-06-05T08:37:09;9.27;;;8.35;;
10315;SDS011;5203;48.976;8.306;2023-06-05T08:39:36;9.43;;;8.52;;
10315;SDS011;5203;48.976;8.306;2023-06-05T08:42:01;17.73;;;9.43;;
10315;SDS011;5203;48.976;8.306;2023-06-05T08:44:28;34.55;;;11.48;;
10315;SDS011;5203;48.976;8.306;2023-06-05T08:46:59;106.00;;;24.52;;
10315;SDS011;5203;48.976;8.306;2023-06-05T08:49:26;58.80;;;15.55;;
10315;SDS011;5203;48.976;8.306;2023-06-05T08:52:07;27.42;;;12.40;;
10315;SDS011;5203;48.976;8.306;2023-06-05T08:54:38;9.10;;;8.25;;
10315;SDS011;5203;48.976;8.306;2023-06-05T08:57:07;123.43;;;29.52;;
10315;SDS011;5203;48.976;8.306;2023-06-05T08:59:33;12.38;;;11.07;;
10315;SDS011;5203;48.976;8.306;2023-06-05T09:01:59;11.90;;;10.85;;
10315;SDS011;5203;48.976;8.306;2023-06-05T09:04:25;11.25;;;10.55;;
10315;SDS011;5203;48.976;8.306;2023-06-05T09:06:55;28.70;;;14.70;;
10315;SDS011;5203;48.976;8.306;2023-06-05T09:09:21;23.52;;;13.98;;
10315;SDS011;5203;48.976;8.306;2023-06-05T09:11:47;13.73;;;12.02;;
10315;SDS011;5203;48.976;8.306;2023-06-05T09:14:29;23.60;;;15.60;;
10315;SDS011;5203;48.976;8.306;2023-06-05T09:16:56;17.45;;;12.25;;
10315;SDS011;5203;48.976;8.306;2023-06-05T09:19:23;81.82;;;22.63;;
10315;SDS011;5203;48.976;8.306;2023-06-05T09:21:53;70.22;;;18.98;;
10315;SDS011;5203;48.976;8.306;2023-06-05T09:24:23;12.20;;;11.25;;
10315;SDS011;5203;48.976;8.306;2023-06-05T09:31:52;14.35;;;12.23;;
10315;SDS011;5203;48.976;8.306;2023-06-05T09:34:28;12.30;;;11.48;;
10315;SDS011;5203;48.976;8.306;2023-06-05T09:36:59;12.10;;;11.07;;
10315;SDS011;5203;48.976;8.306;2023-06-05T09:39:26;11.57;;;10.90;;
10315;SDS011;5203;48.976;8.306;2023-06-05T09:41:54;11.75;;;11.18;;
10315;SDS011;5203;48.976;8.306;2023-06-05T09:44:21;12.32;;;11.32;;
10315;SDS011;5203;48.976;8.306;2023-06-05T09:46:51;17.40;;;15.60;;
10315;SDS011;5203;48.976;8.306;2023-06-05T09:49:20;13.80;;;12.82;;
10315;SDS011;5203;48.976;8.306;2023-06-05T09:51:49;14.05;;;12.77;;
10315;SDS011;5203;48.976;8.306;2023-06-05T09:54:15;13.18;;;12.38;;
10315;SDS011;5203;48.976;8.306;2023-06-05T09:56:43;13.88;;;12.98;;
10315;SDS011;5203;48.976;8.306;2023-06-05T09:59:19;14.63;;;13.63;;
10315;SDS011;5203;48.976;8.306;2023-06-05T10:01:46;15.05;;;13.68;;
10315;SDS011;5203;48.976;8.306;2023-06-05T10:04:15;13.18;;;12.57;;
10315;SDS011;5203;48.976;8.306;2023-06-05T10:06:43;14.98;;;13.98;;
10315;SDS011;5203;48.976;8.306;2023-06-05T10:09:09;13.90;;;13.10;;
10315;SDS011;5203;48.976;8.306;2023-06-05T10:11:36;13.95;;;13.15;;
10315;SDS011;5203;48.976;8.306;2023-06-05T10:14:05;13.60;;;12.90;;
10315;SDS011;5203;48.976;8.306;2023-06-05T10:16:33;14.95;;;14.05;;
10315;SDS011;5203;48.976;8.306;2023-06-05T10:18:59;15.77;;;15.00;;
10315;SDS011;5203;48.976;8.306;2023-06-05T10:21:25;16.42;;;15.55;;
10315;SDS011;5203;48.976;8.306;2023-06-05T10:26:44;16.63;;;15.73;;
10315;SDS011;5203;48.976;8.306;2023-06-05T10:32:21;18.05;;;17.00;;
10315;SDS011;5203;48.976;8.306;2023-06-05T10:40:48;19.10;;;17.60;;
10315;SDS011;5203;48.976;8.306;2023-06-05T10:45:52;18.48;;;17.52;;
10315;SDS011;5203;48.976;8.306;2023-06-05T10:48:19;18.17;;;17.20;;
10315;SDS011;5203;48.976;8.306;2023-06-05T10:50:45;17.45;;;16.42;;
10315;SDS011;5203;48.976;8.306;2023-06-05T10:59:15;18.83;;;17.95;;
10315;SDS011;5203;48.976;8.306;2023-06-05T11:01:42;19.13;;;17.67;;
10315;SDS011;5203;48.976;8.306;2023-06-05T11:04:08;45.40;;;21.77;;
10315;SDS011;5203;48.976;8.306;2023-06-05T11:06:34;16.88;;;15.68;;
10315;SDS011;5203;48.976;8.306;2023-06-05T11:09:15;17.63;;;16.63;;
10315;SDS011;5203;48.976;8.306;2023-06-05T11:12:00;19.02;;;18.13;;
10315;SDS011;5203;48.976;8.306;2023-06-05T11:15:12;24.95;;;21.27;;
10315;SDS011;5203;48.976;8.306;2023-06-05T11:25:53;21.88;;;20.88;;
10315;SDS011;5203;48.976;8.306;2023-06-05T11:28:37;25.30;;;23.92;;
10315;SDS011;5203;48.976;8.306;2023-06-05T11:31:03;27.27;;;25.73;;
10315;SDS011;5203;48.976;8.306;2023-06-05T11:33:29;28.00;;;26.23;;
10315;SDS011;5203;48.976;8.306;2023-06-05T11:35:59;24.65;;;23.33;;
10315;SDS011;5203;48.976;8.306;2023-06-05T11:38:26;24.27;;;22.98;;
10315;SDS011;5203;48.976;8.306;2023-06-05T11:40:52;23.92;;;22.92;;
10315;SDS011;5203;48.976;8.306;2023-06-05T11:43:18;26.00;;;24.98;;
10315;SDS011;5203;48.976;8.306;2023-06-05T11:45:49;24.77;;;23.77;;
10315;SDS011;5203;48.976;8.306;2023-06-05T11:48:15;25.88;;;24.58;;
10315;SDS011;5203;48.976;8.306;2023-06-05T11:53:31;50.33;;;30.15;;
10315;SDS011;5203;48.976;8.306;2023-06-05T11:55:57;74.03;;;32.08;;
10315;SDS011;5203;48.976;8.306;2023-06-05T11:58:30;30.10;;;24.58;;
10315;SDS011;5203;48.976;8.306;2023-06-05T12:03:31;29.38;;;26.23;;
10315;SDS011;5203;48.976;8.306;2023-06-05T12:05:57;69.30;;;29.65;;
10315;SDS011;5203;48.976;8.306;2023-06-05T12:08:28;24.05;;;22.13;;
10315;SDS011;5203;48.976;8.306;2023-06-05T12:11:00;23.70;;;22.10;;
10315;SDS011;5203;48.976;8.306;2023-06-05T12:16:13;23.42;;;21.90;;
10315;SDS011;5203;48.976;8.306;2023-06-05T12:18:40;23.13;;;21.95;;
10315;SDS011;5203;48.976;8.306;2023-06-05T12:21:06;23.83;;;22.63;;
10315;SDS011;5203;48.976;8.306;2023-06-05T12:23:31;23.88;;;22.55;;
10315;SDS011;5203;48.976;8.306;2023-06-05T12:26:01;25.20;;;24.20;;
10315;SDS011;5203;48.976;8.306;2023-06-05T12:28:28;24.95;;;23.95;;
10315;SDS011;5203;48.976;8.306;2023-06-05T12:30:55;118.47;;;45.15;;
10315;SDS011;5203;48.976;8.306;2023-06-05T12:33:24;136.77;;;50.20;;
10315;SDS011;5203;48.976;8.306;2023-06-05T12:38:41;27.85;;;26.15;;
10315;SDS011;5203;48.976;8.306;2023-06-05T12:41:08;30.80;;;28.55;;
10315;SDS011;5203;48.976;8.306;2023-06-05T12:43:34;27.15;;;26.05;;
10315;SDS011;5203;48.976;8.306;2023-06-05T12:46:00;27.63;;;26.08;;
10315;SDS011;5203;48.976;8.306;2023-06-05T12:48:29;29.25;;;26.58;;
10315;SDS011;5203;48.976;8.306;2023-06-05T12:50:57;26.65;;;25.27;;
10315;SDS011;5203;48.976;8.306;2023-06-05T12:53:23;27.48;;;26.17;;
10315;SDS011;5203;48.976;8.306;2023-06-05T12:58:56;29.98;;;27.42;;
10315;SDS011;5203;48.976;8.306;2023-06-05T13:01:23;115.65;;;41.33;;
10315;SDS011;5203;48.976;8.306;2023-06-05T13:03:54;53.72;;;29.95;;
10315;SDS011;5203;48.976;8.306;2023-06-05T13:06:20;25.90;;;24.63;;
10315;SDS011;5203;48.976;8.306;2023-06-05T13:08:45;24.65;;;23.20;;
10315;SDS011;5203;48.976;8.306;2023-06-05T13:11:15;25.50;;;24.50;;
10315;SDS011;5203;48.976;8.306;2023-06-05T13:13:41;28.40;;;27.30;;
10315;SDS011;5203;48.976;8.306;2023-06-05T13:16:13;29.95;;;28.65;;
10315;SDS011;5203;48.976;8.306;2023-06-05T13:19:10;30.77;;;29.48;;
10315;SDS011;5203;48.976;8.306;2023-06-05T13:21:36;29.88;;;28.58;;
10315;SDS011;5203;48.976;8.306;2023-06-05T13:24:01;30.70;;;29.48;;
10315;SDS011;5203;48.976;8.306;2023-06-05T13:26:27;31.05;;;29.77;;
10315;SDS011;5203;48.976;8.306;2023-06-05T13:28:53;70.00;;;37.95;;
10315;SDS011;5203;48.976;8.306;2023-06-05T13:31:18;30.15;;;28.85;;
10315;SDS011;5203;48.976;8.306;2023-06-05T13:33:45;31.27;;;29.60;;
10315;SDS011;5203;48.976;8.306;2023-06-05T13:36:11;31.05;;;29.65;;
10315;SDS011;5203;48.976;8.306;2023-06-05T13:38:36;31.05;;;29.80;;
10315;SDS011;5203;48.976;8.306;2023-06-05T13:41:02;30.13;;;28.77;;
10315;SDS011;5203;48.976;8.306;2023-06-05T13:43:29;30.13;;;28.48;;
10315;SDS011;5203;48.976;8.306;2023-06-05T13:45:55;30.17;;;28.63;;
10315;SDS011;5203;48.976;8.306;2023-06-05T13:48:20;30.40;;;29.20;;
10315;SDS011;5203;48.976;8.306;2023-06-05T13:50:46;31.02;;;29.73;;
10315;SDS011;5203;48.976;8.306;2023-06-05T13:53:12;31.70;;;30.40;;
10315;SDS011;5203;48.976;8.306;2023-06-05T13:55:38;31.60;;;30.20;;
10315;SDS011;5203;48.976;8.306;2023-06-05T13:58:04;30.38;;;28.95;;
10315;SDS011;5203;48.976;8.306;2023-06-05T14:00:31;30.23;;;28.92;;
10315;SDS011;5203;48.976;8.306;2023-06-05T14:02:57;28.85;;;27.48;;
10315;SDS011;5203;48.976;8.306;2023-06-05T14:05:23;28.90;;;27.25;;
10315;SDS011;5203;48.976;8.306;2023-06-05T14:07:50;28.38;;;27.10;;
10315;SDS011;5203;48.976;8.306;2023-06-05T14:10:18;29.30;;;27.80;;
10315;SDS011;5203;48.976;8.306;2023-06-05T14:12:44;30.45;;;28.50;;
10315;SDS011;5203;48.976;8.306;2023-06-05T14:15:10;34.85;;;33.50;;
10315;SDS011;5203;48.976;8.306;2023-06-05T14:17:36;30.45;;;29.13;;
10315;SDS011;5203;48.976;8.306;2023-06-05T14:20:01;28.60;;;27.40;;
10315;SDS011;5203;48.976;8.306;2023-06-05T14:22:28;30.98;;;29.70;;
10315;SDS011;5203;48.976;8.306;2023-06-05T14:24:53;29.45;;;28.05;;
10315;SDS011;5203;48.976;8.306;2023-06-05T14:27:19;29.85;;;28.75;;
10315;SDS011;5203;48.976;8.306;2023-06-05T14:29:45;30.83;;;29.63;;
10315;SDS011;5203;48.976;8.306;2023-06-05T14:32:10;29.38;;;28.27;;
10315;SDS011;5203;48.976;8.306;2023-06-05T14:34:36;29.90;;;28.70;;
10315;SDS011;5203;48.976;8.306;2023-06-05T14:37:02;29.27;;;27.90;;
10315;SDS011;5203;48.976;8.306;2023-06-05T14:39:27;29.40;;;28.10;;
10315;SDS011;5203;48.976;8.306;2023-06-05T14:41:56;29.58;;;28.33;;
10315;SDS011;5203;48.976;8.306;2023-06-05T14:44:21;32.65;;;29.20;;
10315;SDS011;5203;48.976;8.306;2023-06-05T14:46:47;30.10;;;28.17;;
10315;SDS011;5203;48.976;8.306;2023-06-05T14:49:12;30.33;;;29.10;;
10315;SDS011;5203;48.976;8.306;2023-06-05T14:51:38;34.88;;;33.58;;
10315;SDS011;5203;48.976;8.306;2023-06-05T14:54:04;30.80;;;29.27;;
10315;SDS011;5203;48.976;8.306;2023-06-05T14:56:30;30.00;;;28.90;;
10315;SDS011;5203;48.976;8.306;2023-06-05T14:58:55;29.75;;;28.65;;
10315;SDS011;5203;48.976;8.306;2023-06-05T15:03:54;31.13;;;29.92;;
10315;SDS011;5203;48.976;8.306;2023-06-05T15:06:26;29.77;;;28.58;;
10315;SDS011;5203;48.976;8.306;2023-06-05T15:08:52;30.73;;;29.52;;
10315;SDS011;5203;48.976;8.306;2023-06-05T15:11:24;31.27;;;29.98;;
10315;SDS011;5203;48.976;8.306;2023-06-05T15:13:50;30.30;;;29.20;;
10315;SDS011;5203;48.976;8.306;2023-06-05T15:16:19;31.73;;;30.27;;
10315;SDS011;5203;48.976;8.306;2023-06-05T15:18:50;31.25;;;29.95;;
10315;SDS011;5203;48.976;8.306;2023-06-05T15:21:19;30.25;;;28.90;;
10315;SDS011;5203;48.976;8.306;2023-06-05T15:23:45;29.77;;;28.58;;
10315;SDS011;5203;48.976;8.306;2023-06-05T15:26:11;30.30;;;29.20;;
10315;SDS011;5203;48.976;8.306;2023-06-05T15:28:36;30.63;;;29.52;;
10315;SDS011;5203;48.976;8.306;2023-06-05T15:31:04;33.55;;;32.35;;
10315;SDS011;5203;48.976;8.306;2023-06-05T15:33:32;37.03;;;35.05;;
10315;SDS011;5203;48.976;8.306;2023-06-05T15:35:57;34.90;;;33.13;;
10315;SDS011;5203;48.976;8.306;2023-06-05T15:38:23;32.97;;;31.83;;
10315;SDS011;5203;48.976;8.306;2023-06-05T15:40:49;33.60;;;32.10;;